sensor_id;sensor_type;location;lat;lon;timestamp;P1;durP1;ratioP1;P2;durP2;ratioP2
1753;SDS011;58380;48.312;9.246;2023-06-24T06:23:54;10.40;;;5.93;;
1753;SDS011;58380;48.312;9.246;2023-06-24T06:26:19;11.40;;;6.95;;
1753;SDS011;58380;48.312;9.246;2023-06-24T06:28:46;8.02;;;5.18;;
1753;SDS011;58380;48.312;9.246;2023-06-24T06:31:13;8.05;;;4.35;;
1753;SDS011;58380;48.312;9.246;2023-06-24T06:33:38;6.47;;;4.00;;
1753;SDS011;58380;48.312;9.246;2023-06-24T06:36:04;7.03;;;3.90;;
1753;SDS011;58380;48.312;9.246;2023-06-24T06:38:30;6.30;;;3.20;;
1753;SDS011;58380;48.312;9.246;2023-06-24T06:40:56;6.30;;;3.63;;
1753;SDS011;58380;48.312;9.246;2023-06-24T06:43:22;5.07;;;3.38;;
1753;SDS011;58380;48.312;9.246;2023-06-24T06:45:47;5.50;;;3.08;;
1753;SDS011;58380;48.312;9.246;2023-06-24T06:48:13;5.45;;;3.17;;
1753;SDS011;58380;48.312;9.246;2023-06-24T06:50:38;5.18;;;2.80;;
1753;SDS011;58380;48.312;9.246;2023-06-24T06:53:04;5.82;;;3.20;;
1753;SDS011;58380;48.312;9.246;2023-06-24T06:55:29;5.00;;;2.80;;
1753;SDS011;58380;48.312;9.246;2023-06-24T06:57:54;4.45;;;2.67;;
1753;SDS011;58380;48.312;9.246;2023-06-24T07:00:20;5.88;;;2.58;;
1753;SDS011;58380;48.312;9.246;2023-06-24T07:02:46;6.93;;;3.28;;
1753;SDS011;58380;48.312;9.246;2023-06-24T07:07:37;4.82;;;3.10;;
1753;SDS011;58380;48.312;9.246;2023-06-24T07:10:03;6.97;;;2.70;;
1753;SDS011;58380;48.312;9.246;2023-06-24T07:12:30;3.83;;;2.72;;
1753;SDS011;58380;48.312;9.246;2023-06-24T07:14:56;5.50;;;3.03;;
1753;SDS011;58380;48.312;9.246;2023-06-24T07:17:21;4.55;;;2.83;;
1753;SDS011;58380;48.312;9.246;2023-06-24T07:19:47;5.28;;;3.15;;
1753;SDS011;58380;48.312;9.246;2023-06-24T07:24:39;9.77;;;3.33;;
1753;SDS011;58380;48.312;9.246;2023-06-24T07:27:04;5.15;;;2.88;;
1753;SDS011;58380;48.312;9.246;2023-06-24T07:29:31;4.20;;;2.78;;
1753;SDS011;58380;48.312;9.246;2023-06-24T07:31:56;5.80;;;2.90;;
1753;SDS011;58380;48.312;9.246;2023-06-24T07:34:21;5.28;;;3.20;;
1753;SDS011;58380;48.312;9.246;2023-06-24T07:39:12;5.32;;;2.88;;
1753;SDS011;58380;48.312;9.246;2023-06-24T07:41:38;5.43;;;3.15;;
1753;SDS011;58380;48.312;9.246;2023-06-24T07:44:04;5.32;;;2.92;;
1753;SDS011;58380;48.312;9.246;2023-06-24T07:46:29;5.10;;;2.90;;
1753;SDS011;58380;48.312;9.246;2023-06-24T07:48:55;5.97;;;3.13;;
1753;SDS011;58380;48.312;9.246;2023-06-24T07:51:21;5.13;;;2.97;;
1753;SDS011;58380;48.312;9.246;2023-06-24T07:53:46;3.92;;;2.90;;
1753;SDS011;58380;48.312;9.246;2023-06-24T07:56:11;5.70;;;2.80;;
1753;SDS011;58380;48.312;9.246;2023-06-24T07:58:37;4.68;;;3.13;;
1753;SDS011;58380;48.312;9.246;2023-06-24T08:03:29;4.68;;;3.15;;
1753;SDS011;58380;48.312;9.246;2023-06-24T08:08:21;5.80;;;3.53;;
1753;SDS011;58380;48.312;9.246;2023-06-24T08:13:12;6.05;;;3.22;;
1753;SDS011;58380;48.312;9.246;2023-06-24T08:18:03;5.18;;;3.30;;
1753;SDS011;58380;48.312;9.246;2023-06-24T08:22:54;6.15;;;3.50;;
1753;SDS011;58380;48.312;9.246;2023-06-24T08:25:19;4.43;;;3.17;;
1753;SDS011;58380;48.312;9.246;2023-06-24T08:30:12;7.07;;;3.65;;
1753;SDS011;58380;48.312;9.246;2023-06-24T08:32:40;5.30;;;3.35;;
1753;SDS011;58380;48.312;9.246;2023-06-24T08:37:32;4.93;;;3.10;;
1753;SDS011;58380;48.312;9.246;2023-06-24T08:42:22;4.85;;;2.78;;
1753;SDS011;58380;48.312;9.246;2023-06-24T08:44:49;4.95;;;3.17;;
1753;SDS011;58380;48.312;9.246;2023-06-24T08:49:46;4.97;;;2.97;;
1753;SDS011;58380;48.312;9.246;2023-06-24T08:52:16;4.82;;;2.50;;
1753;SDS011;58380;48.312;9.246;2023-06-24T08:54:45;6.57;;;3.10;;
1753;SDS011;58380;48.312;9.246;2023-06-24T08:57:16;5.03;;;2.90;;
1753;SDS011;58380;48.312;9.246;2023-06-24T08:59:43;5.13;;;3.17;;
1753;SDS011;58380;48.312;9.246;2023-06-24T09:04:36;5.28;;;3.42;;
1753;SDS011;58380;48.312;9.246;2023-06-24T09:09:28;5.25;;;3.10;;
1753;SDS011;58380;48.312;9.246;2023-06-24T09:14:24;4.18;;;2.90;;
1753;SDS011;58380;48.312;9.246;2023-06-24T09:17:00;4.88;;;2.70;;
1753;SDS011;58380;48.312;9.246;2023-06-24T09:19:27;5.28;;;3.08;;
1753;SDS011;58380;48.312;9.246;2023-06-24T09:22:01;4.70;;;3.10;;
1753;SDS011;58380;48.312;9.246;2023-06-24T09:24:32;5.20;;;2.90;;
1753;SDS011;58380;48.312;9.246;2023-06-24T09:26:59;4.28;;;2.65;;
1753;SDS011;58380;48.312;9.246;2023-06-24T09:29:25;5.72;;;3.10;;
1753;SDS011;58380;48.312;9.246;2023-06-24T09:32:04;4.88;;;2.90;;
1753;SDS011;58380;48.312;9.246;2023-06-24T09:34:30;5.53;;;3.25;;
1753;SDS011;58380;48.312;9.246;2023-06-24T09:36:57;5.57;;;2.85;;
1753;SDS011;58380;48.312;9.246;2023-06-24T09:39:24;6.03;;;2.63;;
1753;SDS011;58380;48.312;9.246;2023-06-24T09:41:55;4.20;;;2.95;;
1753;SDS011;58380;48.312;9.246;2023-06-24T09:44:22;5.80;;;2.95;;
1753;SDS011;58380;48.312;9.246;2023-06-24T09:46:48;6.10;;;2.90;;
1753;SDS011;58380;48.312;9.246;2023-06-24T09:51:43;5.53;;;3.33;;
1753;SDS011;58380;48.312;9.246;2023-06-24T09:54:14;4.40;;;2.80;;
1753;SDS011;58380;48.312;9.246;2023-06-24T09:56:50;4.35;;;3.03;;
1753;SDS011;58380;48.312;9.246;2023-06-24T09:59:18;3.58;;;2.70;;
1753;SDS011;58380;48.312;9.246;2023-06-24T10:01:47;7.95;;;2.55;;
1753;SDS011;58380;48.312;9.246;2023-06-24T10:04:18;4.95;;;2.67;;
1753;SDS011;58380;48.312;9.246;2023-06-24T10:06:46;3.72;;;2.58;;
1753;SDS011;58380;48.312;9.246;2023-06-24T10:09:13;3.63;;;2.30;;
1753;SDS011;58380;48.312;9.246;2023-06-24T10:11:42;4.63;;;2.28;;
1753;SDS011;58380;48.312;9.246;2023-06-24T10:14:09;3.67;;;2.38;;
1753;SDS011;58380;48.312;9.246;2023-06-24T10:19:00;4.65;;;2.70;;
1753;SDS011;58380;48.312;9.246;2023-06-24T10:24:29;4.47;;;2.50;;
1753;SDS011;58380;48.312;9.246;2023-06-24T10:27:01;4.65;;;2.78;;
1753;SDS011;58380;48.312;9.246;2023-06-24T10:29:35;6.28;;;2.30;;
1753;SDS011;58380;48.312;9.246;2023-06-24T10:32:06;6.20;;;2.40;;
1753;SDS011;58380;48.312;9.246;2023-06-24T10:34:34;5.25;;;2.63;;
1753;SDS011;58380;48.312;9.246;2023-06-24T10:47:36;4.63;;;2.30;;
1753;SDS011;58380;48.312;9.246;2023-06-24T10:50:07;3.55;;;2.40;;
1753;SDS011;58380;48.312;9.246;2023-06-24T10:52:43;3.65;;;2.47;;
1753;SDS011;58380;48.312;9.246;2023-06-24T10:55:13;3.75;;;2.50;;
1753;SDS011;58380;48.312;9.246;2023-06-24T10:57:43;3.92;;;2.35;;
1753;SDS011;58380;48.312;9.246;2023-06-24T11:00:10;5.15;;;2.40;;
1753;SDS011;58380;48.312;9.246;2023-06-24T11:02:38;5.20;;;2.42;;
1753;SDS011;58380;48.312;9.246;2023-06-24T11:05:04;5.00;;;2.33;;
1753;SDS011;58380;48.312;9.246;2023-06-24T11:07:31;4.35;;;2.58;;
1753;SDS011;58380;48.312;9.246;2023-06-24T11:10:05;4.93;;;2.65;;
1753;SDS011;58380;48.312;9.246;2023-06-24T11:12:34;4.53;;;2.83;;
1753;SDS011;58380;48.312;9.246;2023-06-24T11:15:02;4.13;;;2.72;;
1753;SDS011;58380;48.312;9.246;2023-06-24T11:17:35;4.88;;;2.60;;
1753;SDS011;58380;48.312;9.246;2023-06-24T11:20:02;4.07;;;2.30;;
1753;SDS011;58380;48.312;9.246;2023-06-24T11:22:33;4.28;;;2.35;;
1753;SDS011;58380;48.312;9.246;2023-06-24T11:24:59;4.38;;;2.83;;
1753;SDS011;58380;48.312;9.246;2023-06-24T11:29:55;4.30;;;2.95;;
1753;SDS011;58380;48.312;9.246;2023-06-24T11:32:23;4.47;;;2.90;;
1753;SDS011;58380;48.312;9.246;2023-06-24T11:34:49;6.53;;;2.65;;
1753;SDS011;58380;48.312;9.246;2023-06-24T11:37:16;3.75;;;2.40;;
1753;SDS011;58380;48.312;9.246;2023-06-24T11:39:44;3.67;;;2.60;;
1753;SDS011;58380;48.312;9.246;2023-06-24T11:42:10;4.68;;;2.47;;
1753;SDS011;58380;48.312;9.246;2023-06-24T11:44:42;5.20;;;2.45;;
1753;SDS011;58380;48.312;9.246;2023-06-24T11:47:09;4.75;;;2.47;;
1753;SDS011;58380;48.312;9.246;2023-06-24T11:49:52;3.63;;;2.50;;
1753;SDS011;58380;48.312;9.246;2023-06-24T11:52:27;6.15;;;3.00;;
1753;SDS011;58380;48.312;9.246;2023-06-24T11:55:00;4.05;;;3.00;;
1753;SDS011;58380;48.312;9.246;2023-06-24T11:57:46;5.10;;;2.83;;
1753;SDS011;58380;48.312;9.246;2023-06-24T12:00:27;4.47;;;2.70;;
1753;SDS011;58380;48.312;9.246;2023-06-24T12:02:56;6.60;;;3.00;;
1753;SDS011;58380;48.312;9.246;2023-06-24T12:05:28;7.30;;;3.05;;
1753;SDS011;58380;48.312;9.246;2023-06-24T12:08:00;3.53;;;2.15;;
1753;SDS011;58380;48.312;9.246;2023-06-24T12:10:37;5.13;;;3.17;;
1753;SDS011;58380;48.312;9.246;2023-06-24T12:13:04;6.03;;;2.67;;
1753;SDS011;58380;48.312;9.246;2023-06-24T12:15:31;4.07;;;2.70;;
1753;SDS011;58380;48.312;9.246;2023-06-24T12:17:57;3.92;;;2.50;;
1753;SDS011;58380;48.312;9.246;2023-06-24T12:20:24;4.40;;;2.30;;
1753;SDS011;58380;48.312;9.246;2023-06-24T12:22:50;4.88;;;2.70;;
1753;SDS011;58380;48.312;9.246;2023-06-24T12:25:16;5.07;;;2.45;;
1753;SDS011;58380;48.312;9.246;2023-06-24T12:27:42;3.60;;;2.50;;
1753;SDS011;58380;48.312;9.246;2023-06-24T12:30:09;4.07;;;2.50;;
1753;SDS011;58380;48.312;9.246;2023-06-24T12:32:35;3.78;;;2.50;;
1753;SDS011;58380;48.312;9.246;2023-06-24T12:35:01;5.97;;;2.85;;
1753;SDS011;58380;48.312;9.246;2023-06-24T12:37:29;4.35;;;2.50;;
1753;SDS011;58380;48.312;9.246;2023-06-24T12:39:57;3.83;;;2.45;;
1753;SDS011;58380;48.312;9.246;2023-06-24T12:42:23;3.67;;;2.50;;
1753;SDS011;58380;48.312;9.246;2023-06-24T12:44:48;3.10;;;2.38;;
1753;SDS011;58380;48.312;9.246;2023-06-24T12:47:14;2.80;;;2.35;;
1753;SDS011;58380;48.312;9.246;2023-06-24T12:49:39;5.25;;;2.70;;
1753;SDS011;58380;48.312;9.246;2023-06-24T12:52:04;4.88;;;2.70;;
1753;SDS011;58380;48.312;9.246;2023-06-24T12:54:30;4.38;;;2.70;;
1753;SDS011;58380;48.312;9.246;2023-06-24T12:56:55;4.05;;;2.67;;
1753;SDS011;58380;48.312;9.246;2023-06-24T12:59:22;5.82;;;2.70;;
1753;SDS011;58380;48.312;9.246;2023-06-24T13:01:47;4.60;;;2.45;;
1753;SDS011;58380;48.312;9.246;2023-06-24T13:04:13;3.38;;;2.33;;
1753;SDS011;58380;48.312;9.246;2023-06-24T13:06:38;4.63;;;2.30;;
1753;SDS011;58380;48.312;9.246;2023-06-24T13:09:04;5.78;;;2.60;;
1753;SDS011;58380;48.312;9.246;2023-06-24T13:11:30;4.82;;;2.50;;
1753;SDS011;58380;48.312;9.246;2023-06-24T13:13:55;3.40;;;2.25;;
1753;SDS011;58380;48.312;9.246;2023-06-24T13:16:20;3.88;;;2.53;;
1753;SDS011;58380;48.312;9.246;2023-06-24T13:18:47;3.10;;;2.33;;
1753;SDS011;58380;48.312;9.246;2023-06-24T13:21:12;3.83;;;2.47;;
1753;SDS011;58380;48.312;9.246;2023-06-24T13:23:38;3.80;;;2.63;;
1753;SDS011;58380;48.312;9.246;2023-06-24T13:26:04;4.72;;;2.35;;
1753;SDS011;58380;48.312;9.246;2023-06-24T13:28:31;5.05;;;2.78;;
1753;SDS011;58380;48.312;9.246;2023-06-24T13:30:57;3.25;;;2.28;;
1753;SDS011;58380;48.312;9.246;2023-06-24T13:33:23;3.80;;;2.70;;
1753;SDS011;58380;48.312;9.246;2023-06-24T13:35:48;4.60;;;2.65;;
1753;SDS011;58380;48.312;9.246;2023-06-24T13:38:17;4.53;;;2.50;;
1753;SDS011;58380;48.312;9.246;2023-06-24T13:40:42;3.92;;;2.55;;
1753;SDS011;58380;48.312;9.246;2023-06-24T13:43:08;4.38;;;2.70;;
1753;SDS011;58380;48.312;9.246;2023-06-24T13:45:33;5.85;;;2.72;;
1753;SDS011;58380;48.312;9.246;2023-06-24T13:47:59;3.42;;;2.38;;
1753;SDS011;58380;48.312;9.246;2023-06-24T13:50:24;3.30;;;2.45;;
1753;SDS011;58380;48.312;9.246;2023-06-24T13:52:50;4.03;;;2.70;;
1753;SDS011;58380;48.312;9.246;2023-06-24T13:55:15;3.63;;;2.47;;
1753;SDS011;58380;48.312;9.246;2023-06-24T13:57:41;4.13;;;2.78;;
1753;SDS011;58380;48.312;9.246;2023-06-24T14:00:06;3.72;;;2.70;;
1753;SDS011;58380;48.312;9.246;2023-06-24T14:02:33;4.70;;;3.00;;
1753;SDS011;58380;48.312;9.246;2023-06-24T14:04:59;5.65;;;2.70;;
1753;SDS011;58380;48.312;9.246;2023-06-24T14:07:24;3.92;;;2.53;;
1753;SDS011;58380;48.312;9.246;2023-06-24T14:09:50;3.25;;;2.33;;
1753;SDS011;58380;48.312;9.246;2023-06-24T14:12:15;3.75;;;2.47;;
1753;SDS011;58380;48.312;9.246;2023-06-24T14:14:41;4.47;;;2.60;;
1753;SDS011;58380;48.312;9.246;2023-06-24T14:17:06;4.70;;;2.92;;
1753;SDS011;58380;48.312;9.246;2023-06-24T14:19:37;4.13;;;2.60;;
1753;SDS011;58380;48.312;9.246;2023-06-24T14:22:04;4.00;;;2.58;;
1753;SDS011;58380;48.312;9.246;2023-06-24T14:24:32;4.00;;;2.72;;
1753;SDS011;58380;48.312;9.246;2023-06-24T14:26:58;3.40;;;2.50;;
1753;SDS011;58380;48.312;9.246;2023-06-24T14:29:24;6.20;;;2.92;;
1753;SDS011;58380;48.312;9.246;2023-06-24T14:31:50;4.10;;;2.80;;
1753;SDS011;58380;48.312;9.246;2023-06-24T14:34:17;3.28;;;2.28;;
1753;SDS011;58380;48.312;9.246;2023-06-24T14:36:43;4.38;;;2.65;;
1753;SDS011;58380;48.312;9.246;2023-06-24T14:39:09;4.43;;;2.78;;
1753;SDS011;58380;48.312;9.246;2023-06-24T14:41:37;4.68;;;2.45;;
1753;SDS011;58380;48.312;9.246;2023-06-24T14:44:02;3.58;;;2.38;;
1753;SDS011;58380;48.312;9.246;2023-06-24T14:46:28;3.97;;;2.85;;
1753;SDS011;58380;48.312;9.246;2023-06-24T14:48:54;4.22;;;2.67;;
1753;SDS011;58380;48.312;9.246;2023-06-24T14:51:19;3.90;;;2.35;;
1753;SDS011;58380;48.312;9.246;2023-06-24T14:53:44;5.20;;;2.40;;
1753;SDS011;58380;48.312;9.246;2023-06-24T14:56:10;3.67;;;2.50;;
1753;SDS011;58380;48.312;9.246;2023-06-24T14:58:35;4.25;;;2.60;;
1753;SDS011;58380;48.312;9.246;2023-06-24T15:01:01;5.78;;;2.70;;
1753;SDS011;58380;48.312;9.246;2023-06-24T15:03:26;7.57;;;2.38;;
1753;SDS011;58380;48.312;9.246;2023-06-24T15:05:51;4.10;;;2.80;;
1753;SDS011;58380;48.312;9.246;2023-06-24T15:08:17;3.78;;;2.53;;
1753;SDS011;58380;48.312;9.246;2023-06-24T15:10:42;4.93;;;2.50;;
1753;SDS011;58380;48.312;9.246;2023-06-24T15:13:08;4.38;;;2.70;;
1753;SDS011;58380;48.312;9.246;2023-06-24T15:15:34;3.10;;;2.22;;
1753;SDS011;58380;48.312;9.246;2023-06-24T15:17:59;3.92;;;2.70;;
1753;SDS011;58380;48.312;9.246;2023-06-24T15:20:25;3.50;;;2.40;;
1753;SDS011;58380;48.312;9.246;2023-06-24T15:22:51;4.38;;;2.40;;
1753;SDS011;58380;48.312;9.246;2023-06-24T15:25:17;4.03;;;2.58;;
1753;SDS011;58380;48.312;9.246;2023-06-24T15:27:42;4.43;;;2.47;;
1753;SDS011;58380;48.312;9.246;2023-06-24T15:30:08;4.10;;;2.40;;
1753;SDS011;58380;48.312;9.246;2023-06-24T15:32:33;4.70;;;2.60;;
1753;SDS011;58380;48.312;9.246;2023-06-24T15:35:01;10.07;;;3.00;;
1753;SDS011;58380;48.312;9.246;2023-06-24T15:37:28;5.40;;;2.40;;
1753;SDS011;58380;48.312;9.246;2023-06-24T15:39:54;3.35;;;2.50;;
1753;SDS011;58380;48.312;9.246;2023-06-24T15:42:20;3.13;;;2.53;;
1753;SDS011;58380;48.312;9.246;2023-06-24T15:44:46;4.07;;;2.80;;
1753;SDS011;58380;48.312;9.246;2023-06-24T15:47:11;4.80;;;2.58;;
1753;SDS011;58380;48.312;9.246;2023-06-24T15:49:37;4.45;;;2.92;;
1753;SDS011;58380;48.312;9.246;2023-06-24T15:52:02;4.50;;;2.72;;
1753;SDS011;58380;48.312;9.246;2023-06-24T15:54:28;6.53;;;2.63;;
1753;SDS011;58380;48.312;9.246;2023-06-24T15:56:53;3.17;;;2.30;;
1753;SDS011;58380;48.312;9.246;2023-06-24T15:59:18;3.22;;;2.50;;
1753;SDS011;58380;48.312;9.246;2023-06-24T16:01:44;3.40;;;2.60;;
1753;SDS011;58380;48.312;9.246;2023-06-24T16:04:09;6.03;;;2.40;;
1753;SDS011;58380;48.312;9.246;2023-06-24T16:06:35;3.83;;;2.55;;
1753;SDS011;58380;48.312;9.246;2023-06-24T16:09:00;4.80;;;2.42;;
1753;SDS011;58380;48.312;9.246;2023-06-24T16:11:26;6.82;;;2.78;;
1753;SDS011;58380;48.312;9.246;2023-06-24T16:13:51;3.30;;;2.40;;
1753;SDS011;58380;48.312;9.246;2023-06-24T16:16:17;4.13;;;2.80;;
1753;SDS011;58380;48.312;9.246;2023-06-24T16:18:42;3.67;;;2.53;;
1753;SDS011;58380;48.312;9.246;2023-06-24T16:21:08;6.32;;;2.53;;
1753;SDS011;58380;48.312;9.246;2023-06-24T16:23:33;4.10;;;2.70;;
1753;SDS011;58380;48.312;9.246;2023-06-24T16:25:58;5.28;;;2.53;;
1753;SDS011;58380;48.312;9.246;2023-06-24T16:28:25;4.25;;;2.40;;
1753;SDS011;58380;48.312;9.246;2023-06-24T16:30:51;3.17;;;2.40;;
1753;SDS011;58380;48.312;9.246;2023-06-24T16:33:16;3.95;;;2.63;;
1753;SDS011;58380;48.312;9.246;2023-06-24T16:35:42;3.45;;;2.30;;
1753;SDS011;58380;48.312;9.246;2023-06-24T16:38:07;5.63;;;2.50;;
1753;SDS011;58380;48.312;9.246;2023-06-24T16:40:33;3.72;;;2.63;;
1753;SDS011;58380;48.312;9.246;2023-06-24T16:42:58;3.03;;;2.10;;
1753;SDS011;58380;48.312;9.246;2023-06-24T16:45:23;4.05;;;2.60;;
1753;SDS011;58380;48.312;9.246;2023-06-24T16:47:49;4.03;;;2.70;;
1753;SDS011;58380;48.312;9.246;2023-06-24T16:50:15;3.80;;;2.30;;
1753;SDS011;58380;48.312;9.246;2023-06-24T16:52:40;3.72;;;2.75;;
1753;SDS011;58380;48.312;9.246;2023-06-24T16:55:06;4.40;;;2.95;;
1753;SDS011;58380;48.312;9.246;2023-06-24T16:57:31;4.50;;;2.80;;
1753;SDS011;58380;48.312;9.246;2023-06-24T16:59:57;5.15;;;2.50;;
1753;SDS011;58380;48.312;9.246;2023-06-24T17:02:22;4.53;;;2.60;;
1753;SDS011;58380;48.312;9.246;2023-06-24T17:04:48;3.95;;;2.75;;
1753;SDS011;58380;48.312;9.246;2023-06-24T17:07:13;4.63;;;3.00;;
1753;SDS011;58380;48.312;9.246;2023-06-24T17:09:38;3.88;;;2.88;;
1753;SDS011;58380;48.312;9.246;2023-06-24T17:12:04;4.97;;;2.70;;
1753;SDS011;58380;48.312;9.246;2023-06-24T17:14:30;3.83;;;2.65;;
1753;SDS011;58380;48.312;9.246;2023-06-24T17:16:55;4.10;;;2.80;;
1753;SDS011;58380;48.312;9.246;2023-06-24T17:19:20;4.18;;;2.63;;
1753;SDS011;58380;48.312;9.246;2023-06-24T17:21:46;3.65;;;2.83;;
1753;SDS011;58380;48.312;9.246;2023-06-24T17:24:11;4.45;;;2.90;;
1753;SDS011;58380;48.312;9.246;2023-06-24T17:26:37;4.13;;;2.95;;
1753;SDS011;58380;48.312;9.246;2023-06-24T17:29:02;4.45;;;2.80;;
1753;SDS011;58380;48.312;9.246;2023-06-24T17:31:28;3.45;;;2.60;;
1753;SDS011;58380;48.312;9.246;2023-06-24T17:33:53;3.70;;;2.75;;
1753;SDS011;58380;48.312;9.246;2023-06-24T17:36:19;4.70;;;2.72;;
1753;SDS011;58380;48.312;9.246;2023-06-24T17:41:10;5.25;;;3.17;;
1753;SDS011;58380;48.312;9.246;2023-06-24T17:43:35;4.03;;;2.80;;
1753;SDS011;58380;48.312;9.246;2023-06-24T17:48:26;5.20;;;3.17;;
1753;SDS011;58380;48.312;9.246;2023-06-24T17:50:51;4.15;;;2.90;;
1753;SDS011;58380;48.312;9.246;2023-06-24T17:55:42;4.00;;;2.70;;
1753;SDS011;58380;48.312;9.246;2023-06-24T17:58:08;4.15;;;2.97;;
1753;SDS011;58380;48.312;9.246;2023-06-24T18:03:05;5.13;;;3.20;;
1753;SDS011;58380;48.312;9.246;2023-06-24T18:05:31;6.80;;;3.28;;
1753;SDS011;58380;48.312;9.246;2023-06-24T18:10:23;7.75;;;3.10;;
1753;SDS011;58380;48.312;9.246;2023-06-24T18:15:14;3.80;;;2.88;;
1753;SDS011;58380;48.312;9.246;2023-06-24T18:17:39;4.90;;;3.33;;
1753;SDS011;58380;48.312;9.246;2023-06-24T18:20:05;3.95;;;3.00;;
1753;SDS011;58380;48.312;9.246;2023-06-24T18:22:31;4.03;;;2.83;;
1753;SDS011;58380;48.312;9.246;2023-06-24T18:27:21;6.35;;;3.15;;
1753;SDS011;58380;48.312;9.246;2023-06-24T18:32:12;4.60;;;2.95;;
1753;SDS011;58380;48.312;9.246;2023-06-24T18:37:03;4.15;;;2.90;;
1753;SDS011;58380;48.312;9.246;2023-06-24T18:41:54;5.78;;;3.33;;
1753;SDS011;58380;48.312;9.246;2023-06-24T18:46:45;4.43;;;3.30;;
1753;SDS011;58380;48.312;9.246;2023-06-24T18:51:35;5.72;;;3.55;;
1753;SDS011;58380;48.312;9.246;2023-06-24T18:56:26;10.27;;;3.78;;
1753;SDS011;58380;48.312;9.246;2023-06-24T19:01:17;5.68;;;2.85;;
1753;SDS011;58380;48.312;9.246;2023-06-24T19:06:09;4.25;;;3.20;;
1753;SDS011;58380;48.312;9.246;2023-06-24T19:11:00;4.43;;;2.95;;
1753;SDS011;58380;48.312;9.246;2023-06-24T19:15:50;4.72;;;2.67;;
1753;SDS011;58380;48.312;9.246;2023-06-24T19:18:16;4.60;;;3.00;;
1753;SDS011;58380;48.312;9.246;2023-06-24T19:23:09;5.95;;;3.13;;
1753;SDS011;58380;48.312;9.246;2023-06-24T19:25:36;4.82;;;2.80;;
1753;SDS011;58380;48.312;9.246;2023-06-24T19:30:26;6.28;;;2.80;;
1753;SDS011;58380;48.312;9.246;2023-06-24T19:32:52;4.40;;;3.10;;
1753;SDS011;58380;48.312;9.246;2023-06-24T19:35:17;4.40;;;3.05;;
1753;SDS011;58380;48.312;9.246;2023-06-24T19:37:44;5.63;;;3.17;;
1753;SDS011;58380;48.312;9.246;2023-06-24T19:40:09;4.55;;;3.13;;
1753;SDS011;58380;48.312;9.246;2023-06-24T19:47:29;6.00;;;3.20;;
1753;SDS011;58380;48.312;9.246;2023-06-24T19:52:21;5.15;;;2.90;;
1753;SDS011;58380;48.312;9.246;2023-06-24T19:54:47;6.90;;;3.00;;
1753;SDS011;58380;48.312;9.246;2023-06-24T19:57:13;4.72;;;3.22;;
1753;SDS011;58380;48.312;9.246;2023-06-24T20:02:06;4.68;;;2.85;;
1753;SDS011;58380;48.312;9.246;2023-06-24T20:04:31;5.40;;;3.03;;
1753;SDS011;58380;48.312;9.246;2023-06-24T20:06:57;4.50;;;3.20;;
1753;SDS011;58380;48.312;9.246;2023-06-24T20:09:22;6.63;;;4.00;;
1753;SDS011;58380;48.312;9.246;2023-06-24T20:11:48;9.30;;;3.25;;
1753;SDS011;58380;48.312;9.246;2023-06-24T20:14:13;6.60;;;3.17;;
1753;SDS011;58380;48.312;9.246;2023-06-24T20:16:39;4.75;;;3.42;;
1753;SDS011;58380;48.312;9.246;2023-06-24T20:19:04;5.13;;;3.10;;
1753;SDS011;58380;48.312;9.246;2023-06-24T20:21:29;5.85;;;2.95;;
1753;SDS011;58380;48.312;9.246;2023-06-24T20:23:55;4.97;;;2.95;;
1753;SDS011;58380;48.312;9.246;2023-06-24T20:26:20;4.55;;;3.00;;
1753;SDS011;58380;48.312;9.246;2023-06-24T20:28:45;4.45;;;2.90;;
1753;SDS011;58380;48.312;9.246;2023-06-24T20:31:11;4.75;;;2.90;;
1753;SDS011;58380;48.312;9.246;2023-06-24T20:33:37;4.30;;;2.97;;
1753;SDS011;58380;48.312;9.246;2023-06-24T20:36:04;5.07;;;3.20;;
1753;SDS011;58380;48.312;9.246;2023-06-24T20:38:30;6.63;;;3.28;;
1753;SDS011;58380;48.312;9.246;2023-06-24T20:40:57;7.25;;;3.17;;
1753;SDS011;58380;48.312;9.246;2023-06-24T20:43:23;4.70;;;2.97;;
1753;SDS011;58380;48.312;9.246;2023-06-24T20:45:49;6.30;;;3.50;;
1753;SDS011;58380;48.312;9.246;2023-06-24T20:48:15;4.80;;;3.10;;
1753;SDS011;58380;48.312;9.246;2023-06-24T20:50:41;5.25;;;3.00;;
1753;SDS011;58380;48.312;9.246;2023-06-24T20:53:06;5.45;;;2.97;;
1753;SDS011;58380;48.312;9.246;2023-06-24T20:55:31;5.18;;;3.10;;
1753;SDS011;58380;48.312;9.246;2023-06-24T20:57:57;6.63;;;3.55;;
1753;SDS011;58380;48.312;9.246;2023-06-24T21:00:22;5.75;;;3.60;;
1753;SDS011;58380;48.312;9.246;2023-06-24T21:02:48;5.32;;;3.13;;
1753;SDS011;58380;48.312;9.246;2023-06-24T21:05:13;7.85;;;3.25;;
1753;SDS011;58380;48.312;9.246;2023-06-24T21:07:39;4.72;;;3.20;;
1753;SDS011;58380;48.312;9.246;2023-06-24T21:10:04;4.70;;;3.20;;
1753;SDS011;58380;48.312;9.246;2023-06-24T21:12:30;5.95;;;3.20;;
1753;SDS011;58380;48.312;9.246;2023-06-24T21:14:56;5.95;;;3.20;;
1753;SDS011;58380;48.312;9.246;2023-06-24T21:17:21;5.95;;;3.22;;
1753;SDS011;58380;48.312;9.246;2023-06-24T21:19:47;6.75;;;3.55;;
1753;SDS011;58380;48.312;9.246;2023-06-24T21:22:12;5.20;;;3.17;;
1753;SDS011;58380;48.312;9.246;2023-06-24T21:24:38;5.07;;;3.00;;
1753;SDS011;58380;48.312;9.246;2023-06-24T21:27:03;4.70;;;3.37;;
1753;SDS011;58380;48.312;9.246;2023-06-24T21:29:29;5.18;;;3.28;;
1753;SDS011;58380;48.312;9.246;2023-06-24T21:31:54;7.05;;;3.47;;
1753;SDS011;58380;48.312;9.246;2023-06-24T21:34:20;6.53;;;3.40;;
1753;SDS011;58380;48.312;9.246;2023-06-24T21:36:45;6.30;;;3.87;;
1753;SDS011;58380;48.312;9.246;2023-06-24T21:39:11;5.23;;;3.33;;
1753;SDS011;58380;48.312;9.246;2023-06-24T21:41:36;4.93;;;3.13;;
1753;SDS011;58380;48.312;9.246;2023-06-24T21:44:01;5.60;;;3.60;;
1753;SDS011;58380;48.312;9.246;2023-06-24T21:46:28;6.88;;;3.75;;
1753;SDS011;58380;48.312;9.246;2023-06-24T21:48:53;5.23;;;3.40;;
1753;SDS011;58380;48.312;9.246;2023-06-24T21:51:19;5.10;;;3.05;;
1753;SDS011;58380;48.312;9.246;2023-06-24T21:53:44;4.80;;;3.30;;
